createdAt,value
2023-03-24T00:01:49.757Z,98361.60
2023-03-24T00:04:27.890Z,98362.20
2023-03-24T00:07:05.484Z,98362.20
2023-03-24T00:09:43.344Z,98360.00
2023-03-24T00:12:20.580Z,98360.20
2023-03-24T00:14:57.353Z,98357.80
2023-03-24T00:17:36.283Z,98355.40
2023-03-24T00:20:17.747Z,98357.20
2023-03-24T00:22:58.954Z,98362.80
2023-03-24T00:25:37.513Z,98361.80
2023-03-24T00:28:14.392Z,98366.20
2023-03-24T00:30:53.616Z,98368.80
2023-03-24T00:33:32.992Z,98367.00
2023-03-24T00:36:13.570Z,98361.20
2023-03-24T00:38:50.679Z,98360.60
2023-03-24T00:41:29.099Z,98357.20
2023-03-24T00:44:07.279Z,98359.00
2023-03-24T00:46:46.233Z,98357.80
2023-03-24T00:49:42.094Z,98351.60
2023-03-24T00:52:22.572Z,98354.00
2023-03-24T00:55:01.957Z,98349.40
2023-03-24T00:57:40.898Z,98350.80
2023-03-24T01:00:21.221Z,98347.00
2023-03-24T01:03:03.527Z,98345.40
2023-03-24T01:05:41.524Z,98345.20
2023-03-24T01:08:20.900Z,98342.60
2023-03-24T01:11:01.304Z,98339.40
2023-03-24T01:13:38.781Z,98338.40
2023-03-24T01:16:16.199Z,98336.60
2023-03-24T01:18:53.592Z,98338.20
2023-03-24T01:21:32.001Z,98334.80
2023-03-24T01:24:10.124Z,98332.80
2023-03-24T01:26:46.851Z,98325.60
2023-03-24T01:29:23.698Z,98323.40
2023-03-24T01:32:00.672Z,98324.00
2023-03-24T01:34:37.910Z,98320.80
2023-03-24T01:37:14.730Z,98320.20
2023-03-24T01:39:52.059Z,98319.00
2023-03-24T01:42:31.428Z,98318.40
2023-03-24T01:45:46.682Z,98316.00
2023-03-24T01:48:30.534Z,98321.80
2023-03-24T01:51:14.092Z,98320.60
2023-03-24T01:53:55.860Z,98322.00
2023-03-24T01:56:36.529Z,98323.40
2023-03-24T01:59:19.060Z,98320.80
2023-03-24T02:02:05.383Z,98324.40
2023-03-24T02:05:01.284Z,98321.00
2023-03-24T02:07:54.356Z,98315.00
2023-03-24T02:10:35.193Z,98308.00
2023-03-24T02:13:12.491Z,98306.60
2023-03-24T02:16:06.105Z,98307.00
2023-03-24T02:18:54.897Z,98306.40
2023-03-24T02:22:35.647Z,98308.80
2023-03-24T02:25:59.077Z,98304.00
2023-03-24T02:28:53.157Z,98308.60
2023-03-24T02:32:22.477Z,98302.20
2023-03-24T02:35:57.435Z,98302.80
2023-03-24T02:39:38.577Z,98300.00
2023-03-24T02:42:31.734Z,98295.60
2023-03-24T02:45:26.592Z,98291.20
2023-03-24T02:48:28.108Z,98286.20
2023-03-24T02:51:16.731Z,98281.60
2023-03-24T02:54:08.438Z,98277.40
2023-03-24T02:56:53.953Z,98278.80
2023-03-24T03:00:21.428Z,98277.20
2023-03-24T03:03:23.796Z,98281.60
2023-03-24T03:06:10.594Z,98273.00
2023-03-24T03:08:49.894Z,98269.80
2023-03-24T03:11:27.310Z,98265.40
2023-03-24T03:14:08.978Z,98267.80
2023-03-24T03:16:53.630Z,98266.20
2023-03-24T03:19:38.782Z,98261.60
2023-03-24T03:22:23.278Z,98254.40
2023-03-24T03:25:05.556Z,98254.40
2023-03-24T03:27:46.980Z,98249.80
2023-03-24T03:30:33.922Z,98248.60
2023-03-24T03:33:24.783Z,98252.60
2023-03-24T03:36:12.018Z,98259.80
2023-03-24T03:39:01.787Z,98256.60
2023-03-24T03:41:40.051Z,98256.00
2023-03-24T03:44:17.111Z,98258.80
2023-03-24T03:46:54.034Z,98264.20
2023-03-24T03:49:37.730Z,98259.80
2023-03-24T03:52:15.711Z,98262.80
2023-03-24T03:54:54.332Z,98259.40
2023-03-24T03:57:31.810Z,98262.40
2023-03-24T04:00:26.294Z,98260.20
2023-03-24T04:03:44.441Z,98253.20
2023-03-24T04:06:38.178Z,98252.00
2023-03-24T04:09:42.286Z,98249.60
2023-03-24T04:13:10.374Z,98239.00
2023-03-24T04:16:18.172Z,98237.00
2023-03-24T04:19:34.782Z,98237.00
2023-03-24T04:22:32.423Z,98238.60
2023-03-24T04:25:35.360Z,98239.40
2023-03-24T04:28:26.708Z,98237.20
2023-03-24T04:31:15.059Z,98239.60
2023-03-24T04:34:03.369Z,98242.00
2023-03-24T04:36:50.595Z,98244.60
2023-03-24T04:39:39.220Z,98242.80
2023-03-24T04:42:27.057Z,98244.00
2023-03-24T04:45:05.391Z,98241.80
2023-03-24T04:47:57.011Z,98243.20
2023-03-24T04:51:04.459Z,98243.20
2023-03-24T04:53:54.393Z,98247.80
2023-03-24T04:56:48.687Z,98250.20
2023-03-24T04:59:37.963Z,98254.60
2023-03-24T05:02:15.833Z,98258.80
2023-03-24T05:05:03.673Z,98260.40
2023-03-24T05:07:44.089Z,98264.00
2023-03-24T05:10:22.897Z,98267.80
2023-03-24T05:13:03.664Z,98267.60
2023-03-24T05:16:00.237Z,98266.40
2023-03-24T05:18:41.054Z,98272.80
2023-03-24T05:21:20.692Z,98271.20
2023-03-24T05:23:57.015Z,98280.40
2023-03-24T05:26:34.361Z,98274.60
2023-03-24T05:29:29.695Z,98282.00
2023-03-24T05:32:07.006Z,98275.20
2023-03-24T05:34:43.273Z,98278.00
2023-03-24T05:37:21.526Z,98277.20
2023-03-24T05:39:59.691Z,98278.40
2023-03-24T05:42:56.003Z,98281.20
2023-03-24T05:45:34.460Z,98283.80
2023-03-24T05:48:12.093Z,98279.20
2023-03-24T05:51:41.217Z,98279.60
2023-03-24T05:54:17.733Z,98279.40
2023-03-24T05:56:56.655Z,98278.80
2023-03-24T05:59:46.217Z,98283.20
2023-03-24T06:02:29.813Z,98286.40
2023-03-24T06:05:14.409Z,98284.40
2023-03-24T06:07:51.071Z,98286.20
2023-03-24T06:10:27.981Z,98285.60
2023-03-24T06:13:04.515Z,98285.60
2023-03-24T06:15:43.104Z,98285.20
2023-03-24T06:19:02.067Z,98282.00
2023-03-24T06:22:36.372Z,98287.00
2023-03-24T06:25:17.046Z,98290.60
2023-03-24T06:28:04.428Z,98288.00
2023-03-24T06:30:44.597Z,98288.40
2023-03-24T06:33:25.969Z,98286.40
2023-03-24T06:36:03.285Z,98291.40
2023-03-24T06:38:41.960Z,98292.40
2023-03-24T06:41:18.645Z,98288.20
2023-03-24T06:43:57.185Z,98282.00
2023-03-24T06:46:33.782Z,98282.80
2023-03-24T06:49:11.084Z,98275.80
2023-03-24T06:51:47.587Z,98273.20
2023-03-24T06:54:24.579Z,98273.20
2023-03-24T06:57:01.334Z,98267.80
2023-03-24T06:59:47.446Z,98269.60
2023-03-24T07:02:24.444Z,98268.00
2023-03-24T07:05:01.251Z,98262.20
2023-03-24T07:10:46.550Z,98265.60
2023-03-24T07:13:23.258Z,98266.80
2023-03-24T07:16:01.321Z,98266.00
2023-03-24T07:18:37.992Z,98265.00
2023-03-24T07:21:16.265Z,98262.60
2023-03-24T07:23:56.495Z,98263.20
2023-03-24T07:27:03.707Z,98266.60
2023-03-24T07:29:40.571Z,98262.40
2023-03-24T08:01:02.750Z,98245.20
2023-03-24T08:03:49.281Z,98243.80
2023-03-24T08:06:25.738Z,98240.60
2023-03-24T08:09:06.187Z,98232.00
2023-03-24T08:11:42.467Z,98230.00
2023-03-24T08:14:19.348Z,98224.20
2023-03-24T08:16:56.268Z,98215.40
2023-03-24T08:19:33.022Z,98211.40
2023-03-24T08:22:09.348Z,98210.20
2023-03-24T08:24:45.892Z,98207.60
2023-03-24T08:27:22.283Z,98204.00
2023-03-24T08:29:58.547Z,98196.20
2023-03-24T08:32:34.850Z,98196.40
2023-03-24T08:35:15.971Z,98195.00
2023-03-24T08:37:52.806Z,98195.60
2023-03-24T08:40:31.852Z,98200.60
2023-03-24T08:43:14.364Z,98195.80
2023-03-24T08:45:50.892Z,98196.00
2023-03-24T08:48:28.602Z,98195.40
2023-03-24T08:51:13.776Z,98198.20
2023-03-24T08:53:52.679Z,98200.20
2023-03-24T08:56:29.242Z,98204.40
2023-03-24T08:59:05.931Z,98198.80
2023-03-24T09:01:42.394Z,98195.00
2023-03-24T09:04:18.885Z,98192.00
2023-03-24T09:07:02.812Z,98185.60
2023-03-24T09:09:40.174Z,98185.80
2023-03-24T09:12:16.578Z,98183.60
2023-03-24T09:14:55.479Z,98180.00
2023-03-24T09:17:32.733Z,98176.80
2023-03-24T09:20:13.670Z,98176.60
2023-03-24T09:22:51.560Z,98168.40
2023-03-24T09:25:29.609Z,98162.80
2023-03-24T09:28:06.387Z,98163.20
2023-03-24T09:30:42.769Z,98156.80
2023-03-24T09:33:19.658Z,98154.80
2023-03-24T09:36:03.166Z,98152.60
2023-03-24T09:38:39.603Z,98148.80
2023-03-24T09:41:27.013Z,98145.00
2023-03-24T09:44:19.271Z,98142.40
2023-03-24T09:47:02.021Z,98134.20
2023-03-24T09:49:44.522Z,98134.80
2023-03-24T09:52:29.075Z,98128.20
2023-03-24T09:55:10.847Z,98124.80
2023-03-24T09:57:50.735Z,98128.00
2023-03-24T10:00:32.538Z,98117.20
2023-03-24T10:03:24.488Z,98113.80
2023-03-24T10:06:11.015Z,98104.80
2023-03-24T10:08:56.997Z,98103.40
2023-03-24T10:11:43.934Z,98097.20
2023-03-24T10:14:52.135Z,98099.20
2023-03-24T10:17:43.854Z,98094.00
2023-03-24T10:20:37.010Z,98100.40
2023-03-24T10:23:34.705Z,98095.40
2023-03-24T10:26:32.780Z,98080.00
2023-03-24T10:29:27.976Z,98075.40
2023-03-24T10:32:13.478Z,98073.60
2023-03-24T10:34:57.522Z,98067.40
2023-03-24T10:37:35.130Z,98064.00
2023-03-24T10:40:24.207Z,98059.20
2023-03-24T10:43:06.806Z,98060.60
2023-03-24T10:45:53.060Z,98059.20
2023-03-24T10:48:52.812Z,98056.80
2023-03-24T10:51:35.673Z,98053.40
2023-03-24T10:54:24.306Z,98051.40
2023-03-24T10:57:20.299Z,98046.00
2023-03-24T11:00:10.991Z,98039.00
2023-03-24T11:02:54.092Z,98047.60
2023-03-24T11:05:37.952Z,98043.00
2023-03-24T11:08:37.455Z,98040.20
2023-03-24T11:11:36.246Z,98042.80
2023-03-24T11:14:28.289Z,98038.60
2023-03-24T11:17:16.993Z,98035.40
2023-03-24T11:20:00.769Z,98030.00
2023-03-24T11:22:40.195Z,98023.20
2023-03-24T11:25:19.330Z,98016.40
2023-03-24T11:28:00.978Z,98014.60
2023-03-24T11:30:49.980Z,98013.80
2023-03-24T11:33:34.909Z,98008.40
2023-03-24T11:36:50.147Z,98003.80
2023-03-24T11:39:31.268Z,97999.00
2023-03-24T11:42:18.868Z,97988.60
2023-03-24T11:44:56.735Z,97986.40
2023-03-24T11:47:38.080Z,97983.60
2023-03-24T11:50:25.338Z,97973.20
2023-03-24T11:53:13.268Z,97974.60
2023-03-24T11:55:59.428Z,97970.00
2023-03-24T11:58:47.388Z,97966.80
2023-03-24T12:01:38.017Z,97960.00
2023-03-24T12:04:58.084Z,97955.40
2023-03-24T12:08:24.777Z,97957.60
2023-03-24T12:11:18.848Z,97955.80
2023-03-24T12:13:58.845Z,97954.60
2023-03-24T12:16:53.924Z,97959.00
2023-03-24T12:20:16.064Z,97951.20
2023-03-24T12:23:06.409Z,97949.40
2023-03-24T12:26:14.446Z,97952.40
2023-03-24T12:29:27.029Z,97951.80
2023-03-24T12:32:33.152Z,97948.00
2023-03-24T12:35:56.161Z,97944.40
2023-03-24T12:39:01.355Z,97944.20
2023-03-24T12:42:11.434Z,97947.00
2023-03-24T12:45:29.669Z,97944.00
2023-03-24T12:48:39.715Z,97943.20
2023-03-24T12:51:34.557Z,97939.80
2023-03-24T12:54:31.546Z,97937.20
2023-03-24T12:57:15.227Z,97933.80
2023-03-24T12:59:59.057Z,97932.80
2023-03-24T13:02:40.506Z,97931.60
2023-03-24T13:05:28.673Z,97929.60
2023-03-24T13:08:16.711Z,97928.80
2023-03-24T13:10:55.850Z,97922.20
2023-03-24T13:13:40.326Z,97917.80
2023-03-24T13:16:24.522Z,97915.20
2023-03-24T13:19:03.841Z,97917.40
2023-03-24T13:21:40.468Z,97917.20
2023-03-24T13:24:21.234Z,97917.80
2023-03-24T13:27:13.093Z,97912.00
2023-03-24T13:30:32.668Z,97908.80
2023-03-24T13:33:15.987Z,97902.60
2023-03-24T13:36:21.845Z,97900.60
2023-03-24T13:39:05.690Z,97897.00
2023-03-24T13:41:47.990Z,97895.40
2023-03-24T13:44:31.663Z,97891.80
2023-03-24T13:47:16.964Z,97890.20
2023-03-24T13:50:04.378Z,97890.00
2023-03-24T13:52:46.109Z,97887.80
2023-03-24T13:55:37.045Z,97884.00
2023-03-24T13:58:24.063Z,97880.00
2023-03-24T14:01:34.898Z,97876.60
2023-03-24T14:04:47.603Z,97876.00
2023-03-24T14:07:52.081Z,97876.00
2023-03-24T14:10:48.730Z,97872.60
2023-03-24T14:13:54.181Z,97876.00
2023-03-24T14:16:53.586Z,97877.40
2023-03-24T14:19:39.513Z,97876.40
2023-03-24T14:22:31.467Z,97882.40
2023-03-24T14:25:27.889Z,97875.80
2023-03-24T14:28:29.848Z,97878.20
2023-03-24T14:31:29.844Z,97876.80
2023-03-24T14:34:21.293Z,97876.40
2023-03-24T14:37:07.764Z,97871.60
2023-03-24T14:39:49.566Z,97871.00
2023-03-24T14:43:04.714Z,97868.80
2023-03-24T14:46:06.588Z,97868.00
2023-03-24T14:48:57.516Z,97864.00
2023-03-24T14:51:47.300Z,97862.60
2023-03-24T14:54:35.756Z,97860.00
2023-03-24T14:57:20.868Z,97855.60
2023-03-24T15:00:12.136Z,97846.20
2023-03-24T15:02:53.464Z,97836.60
2023-03-24T15:05:37.236Z,97832.00
2023-03-24T15:08:21.392Z,97831.20
2023-03-24T15:11:04.569Z,97822.40
2023-03-24T15:13:45.489Z,97820.40
2023-03-24T15:16:31.498Z,97814.60
2023-03-24T15:19:21.587Z,97810.40
2023-03-24T15:22:12.023Z,97808.00
2023-03-24T15:24:52.493Z,97810.20
2023-03-24T15:27:34.492Z,97806.40
2023-03-24T15:30:19.446Z,97803.00
2023-03-24T15:32:56.234Z,97802.20
2023-03-24T15:35:36.968Z,97799.60
2023-03-24T15:38:29.238Z,97796.40
2023-03-24T15:41:13.559Z,97797.60
2023-03-24T15:43:54.378Z,97797.20
2023-03-24T15:46:34.127Z,97796.80
2023-03-24T15:49:21.642Z,97797.20
2023-03-24T15:52:03.529Z,97799.20
2023-03-24T15:54:47.517Z,97800.20
2023-03-24T15:57:29.260Z,97799.20
2023-03-24T16:00:20.486Z,97805.40
2023-03-24T16:03:02.311Z,97804.80
2023-03-24T16:05:48.446Z,97807.40
2023-03-24T16:08:41.228Z,97809.80
2023-03-24T16:11:19.026Z,97805.00
2023-03-24T16:13:55.435Z,97801.60
2023-03-24T16:16:39.691Z,97802.00
2023-03-24T16:19:17.130Z,97801.80
2023-03-24T16:21:54.931Z,97808.00
2023-03-24T16:24:31.601Z,97802.60
2023-03-24T16:27:08.375Z,97800.60
2023-03-24T16:29:45.133Z,97800.80
2023-03-24T16:32:21.423Z,97803.00
2023-03-24T16:34:58.712Z,97803.20
2023-03-24T16:37:35.404Z,97803.80
2023-03-24T16:40:31.799Z,97811.60
2023-03-24T16:43:08.887Z,97813.20
2023-03-24T16:45:46.686Z,97814.00
2023-03-24T16:48:23.663Z,97821.20
2023-03-24T16:51:00.262Z,97828.20
2023-03-24T16:53:36.910Z,97824.20
2023-03-24T16:56:17.480Z,97831.80
2023-03-24T16:58:56.462Z,97834.40
2023-03-24T17:01:38.385Z,97832.80
2023-03-24T17:04:19.595Z,97841.40
2023-03-24T17:06:57.433Z,97858.00
2023-03-24T17:09:35.473Z,97856.20
2023-03-24T17:12:13.812Z,97852.80
2023-03-24T17:14:50.348Z,97860.60
2023-03-24T17:17:26.843Z,97864.20
2023-03-24T17:20:05.449Z,97870.40
2023-03-24T17:22:43.150Z,97869.20
2023-03-24T17:25:23.548Z,97870.00
2023-03-24T17:28:00.268Z,97879.60
2023-03-24T17:30:36.632Z,97878.40
2023-03-24T17:33:16.794Z,97879.60
2023-03-24T17:35:53.711Z,97877.00
2023-03-24T17:38:30.055Z,97884.80
2023-03-24T17:41:08.004Z,97886.40
2023-03-24T17:43:45.930Z,97882.40
2023-03-24T17:46:22.341Z,97883.80
2023-03-24T17:48:58.969Z,97885.20
2023-03-24T17:51:35.544Z,97880.80
2023-03-24T17:54:13.388Z,97875.60
2023-03-24T17:56:49.969Z,97877.40
2023-03-24T17:59:26.885Z,97876.20
2023-03-24T18:02:03.709Z,97882.20
2023-03-24T18:04:40.717Z,97880.00
2023-03-24T18:07:17.835Z,97878.80
2023-03-24T18:09:55.215Z,97885.20
2023-03-24T18:12:32.191Z,97884.60
2023-03-24T18:15:11.315Z,97883.80
2023-03-24T18:17:47.912Z,97886.20
2023-03-24T18:20:25.280Z,97882.80
2023-03-24T18:23:02.468Z,97883.00
2023-03-24T18:25:40.081Z,97878.80
2023-03-24T18:28:16.411Z,97878.80
2023-03-24T18:30:52.908Z,97886.40
2023-03-24T18:33:31.593Z,97889.80
2023-03-24T18:36:10.347Z,97893.20
2023-03-24T18:38:46.838Z,97897.00
2023-03-24T18:41:26.960Z,97896.80
2023-03-24T18:44:05.759Z,97894.40
2023-03-24T18:46:42.893Z,97901.00
2023-03-24T18:49:19.885Z,97901.00
2023-03-24T18:51:56.268Z,97896.80
2023-03-24T18:54:33.200Z,97890.40
2023-03-24T18:57:09.786Z,97881.60
2023-03-24T18:59:47.660Z,97886.80
2023-03-24T19:02:24.148Z,97890.40
2023-03-24T19:05:02.458Z,97898.40
2023-03-24T19:07:38.983Z,97905.60
2023-03-24T19:10:16.615Z,97907.80
2023-03-24T19:12:52.978Z,97905.60
2023-03-24T19:15:30.133Z,97903.60
2023-03-24T19:18:07.599Z,97907.80
2023-03-24T19:20:45.404Z,97913.00
2023-03-24T19:23:22.846Z,97912.40
2023-03-24T19:25:59.794Z,97910.20
2023-03-24T19:28:37.717Z,97912.60
2023-03-24T19:31:19.563Z,97914.00
2023-03-24T19:33:57.424Z,97915.60
2023-03-24T19:36:34.430Z,97921.20
2023-03-24T19:39:13.709Z,97917.80
2023-03-24T19:41:50.110Z,97898.40
2023-03-24T19:44:26.424Z,97876.60
2023-03-24T19:47:03.433Z,97863.60
2023-03-24T19:49:40.230Z,97866.60
2023-03-24T19:52:16.886Z,97872.40
2023-03-24T19:54:53.964Z,97871.20
2023-03-24T19:57:30.659Z,97880.80
2023-03-24T20:00:10.671Z,97875.00
2023-03-24T20:02:47.255Z,97870.20
2023-03-24T20:05:24.793Z,97876.80
2023-03-24T20:08:01.632Z,97876.60
2023-03-24T20:10:40.188Z,97873.00
2023-03-24T20:13:16.826Z,97874.00
2023-03-24T20:15:53.762Z,97873.40
2023-03-24T20:18:30.336Z,97866.80
2023-03-24T20:21:08.492Z,97864.40
2023-03-24T20:23:44.953Z,97858.60
2023-03-24T20:26:21.993Z,97859.60
2023-03-24T20:28:58.696Z,97853.60
2023-03-24T20:31:36.739Z,97855.60
2023-03-24T20:34:13.927Z,97851.80
2023-03-24T20:36:50.478Z,97856.00
2023-03-24T20:39:27.090Z,97862.80
2023-03-24T20:42:03.905Z,97862.80
2023-03-24T20:44:40.374Z,97862.20
2023-03-24T20:47:16.842Z,97863.80
2023-03-24T20:49:53.624Z,97859.00
2023-03-24T20:52:30.933Z,97865.80
2023-03-24T20:55:10.131Z,97865.80
2023-03-24T20:57:47.732Z,97866.60
2023-03-24T21:00:25.725Z,97873.80
2023-03-24T21:03:02.452Z,97879.80
2023-03-24T21:05:39.176Z,97882.20
2023-03-24T21:08:15.753Z,97886.00
2023-03-24T21:10:55.907Z,97886.60
2023-03-24T21:13:37.404Z,97889.40
2023-03-24T21:16:16.778Z,97885.80
2023-03-24T21:18:54.168Z,97886.80
2023-03-24T21:21:32.159Z,97887.00
2023-03-24T21:24:09.202Z,97884.40
2023-03-24T21:26:49.428Z,97883.80
2023-03-24T21:29:26.776Z,97886.40
2023-03-24T21:32:03.883Z,97888.80
2023-03-24T21:34:41.241Z,97885.40
2023-03-24T21:37:19.831Z,97882.40
2023-03-24T21:39:56.404Z,97887.40
2023-03-24T21:42:35.302Z,97884.40
2023-03-24T21:45:16.907Z,97879.60
2023-03-24T21:47:55.378Z,97871.00
2023-03-24T21:50:34.759Z,97865.40
2023-03-24T21:53:15.327Z,97865.40
2023-03-24T21:56:04.714Z,97866.40
2023-03-24T21:58:41.694Z,97866.40
2023-03-24T22:01:18.528Z,97864.00
2023-03-24T22:03:56.098Z,97866.60
2023-03-24T22:06:37.502Z,97865.40
2023-03-24T22:09:14.549Z,97866.40
2023-03-24T22:11:50.866Z,97870.80
2023-03-24T22:14:27.330Z,97867.60
2023-03-24T22:17:04.053Z,97870.20
2023-03-24T22:19:41.387Z,97873.00
2023-03-24T22:22:17.909Z,97873.40
2023-03-24T22:24:54.630Z,97876.00
2023-03-24T22:27:31.842Z,97874.40
2023-03-24T22:30:11.367Z,97869.80
2023-03-24T22:32:47.852Z,97871.00
2023-03-24T22:35:24.802Z,97867.20
2023-03-24T22:38:01.207Z,97864.40
2023-03-24T22:40:38.970Z,97863.80
2023-03-24T22:43:15.538Z,97865.00
2023-03-24T22:45:52.256Z,97863.20
2023-03-24T22:48:28.886Z,97859.40
2023-03-24T22:51:06.880Z,97855.60
2023-03-24T22:53:44.605Z,97851.40
2023-03-24T22:56:21.116Z,97846.40
2023-03-24T22:58:57.626Z,97846.60
2023-03-24T23:01:34.199Z,97845.60
2023-03-24T23:04:11.282Z,97844.20
2023-03-24T23:06:48.051Z,97839.80
2023-03-24T23:09:24.929Z,97835.60
2023-03-24T23:12:01.206Z,97835.00
2023-03-24T23:14:38.536Z,97837.80
2023-03-24T23:17:16.041Z,97838.00
2023-03-24T23:19:54.182Z,97837.20
2023-03-24T23:22:31.976Z,97834.00
2023-03-24T23:25:10.396Z,97838.60
2023-03-24T23:27:46.867Z,97834.40
2023-03-24T23:30:23.294Z,97833.20
2023-03-24T23:32:59.879Z,97834.80
2023-03-24T23:35:37.209Z,97838.80
2023-03-24T23:38:13.657Z,97834.80
2023-03-24T23:40:50.476Z,97828.20
2023-03-24T23:43:27.433Z,97828.00
2023-03-24T23:46:04.188Z,97824.40
2023-03-24T23:48:41.386Z,97822.20
2023-03-24T23:51:18.368Z,97819.60
2023-03-24T23:53:55.451Z,97821.00
2023-03-24T23:56:36.868Z,97812.00
2023-03-24T23:59:13.488Z,97812.00
